Time;durP1;ratioP1;P1;durP2;ratioP2;P2;SDS_P1;SDS_P2;PMS_P1;PMS_P2;Temp;Humidity;BMP_temperature;BMP_pressure;BME280_temperature;BME280_humidity;BME280_pressure;Samples;Min_cycle;Max_cycle;Signal;HPM_P1;HPM_P2
2023/01/02 00:01:04;;;;;;;65.30;32.28;;;7.10;99.90;;;;;;6132423;23;20361;-79
2023/01/02 00:03:32;;;;;;;70.45;30.25;;;7.30;99.90;;;;;;6131178;23;20052;-79
2023/01/02 00:06:07;;;;;;;66.38;29.10;;;7.10;99.90;;;;;;6155305;23;20330;-79
2023/01/02 00:08:34;;;;;;;64.80;29.15;;;7.30;99.90;;;;;;6129316;23;20024;-79
2023/01/02 00:11:01;;;;;;;65.75;29.75;;;7.10;99.90;;;;;;6155978;23;20028;-79
2023/01/02 00:13:32;;;;;;;67.15;30.08;;;7.00;99.90;;;;;;6130897;23;20021;-79
2023/01/02 00:15:59;;;;;;;66.47;29.58;;;7.20;99.90;;;;;;6131734;23;20032;-79
2023/01/02 00:18:26;;;;;;;68.55;30.60;;;7.20;99.90;;;;;;6156072;23;20021;-79
2023/01/02 00:20:55;;;;;;;66.50;28.55;;;7.00;99.90;;;;;;6131783;23;20017;-79
2023/01/02 00:23:23;;;;;;;65.40;28.85;;;7.00;99.90;;;;;;6156870;23;20072;-79
2023/01/02 00:25:50;;;;;;;67.68;29.00;;;7.00;99.90;;;;;;6155544;23;20025;-79
2023/01/02 00:28:17;;;;;;;74.47;30.52;;;7.00;99.90;;;;;;6156640;23;20025;-79
2023/01/02 00:30:44;;;;;;;70.25;29.73;;;7.00;99.90;;;;;;6156673;23;20022;-79
2023/01/02 00:33:15;;;;;;;76.97;31.35;;;6.90;99.90;;;;;;6157245;23;20472;-79
2023/01/02 00:35:46;;;;;;;74.50;31.25;;;6.80;99.90;;;;;;6155511;23;20018;-79
2023/01/02 00:38:14;;;;;;;74.60;30.60;;;6.90;99.90;;;;;;6153784;23;20430;-78
2023/01/02 00:40:47;;;;;;;83.18;32.10;;;6.80;99.90;;;;;;6150301;23;20072;-78
2023/01/02 00:43:16;;;;;;;83.03;32.83;;;6.70;99.90;;;;;;6128659;23;20449;-78
2023/01/02 00:45:47;;;;;;;91.80;32.45;;;6.60;99.90;;;;;;6156270;23;20096;-79
2023/01/02 00:48:15;;;;;;;81.05;32.83;;;6.70;99.90;;;;;;6155961;23;20033;-79
2023/01/02 00:50:43;;;;;;;96.63;35.05;;;6.70;99.90;;;;;;6154561;23;20051;-79
2023/01/02 00:53:11;;;;;;;86.22;34.00;;;6.70;99.90;;;;;;6131556;23;20076;-79
2023/01/02 00:55:45;;;;;;;92.32;34.90;;;6.50;99.90;;;;;;6156031;23;20028;-79
2023/01/02 00:58:13;;;;;;;87.90;32.83;;;6.60;99.90;;;;;;6157844;23;20024;-80
2023/01/02 01:00:43;;;;;;;91.75;33.85;;;6.60;99.90;;;;;;6132481;23;20014;-80
2023/01/02 01:03:13;;;;;;;92.22;35.20;;;6.50;99.90;;;;;;6155661;23;20342;-79
2023/01/02 01:05:41;;;;;;;96.82;34.83;;;6.50;99.90;;;;;;6131727;23;20021;-79
2023/01/02 01:08:08;;;;;;;93.68;34.80;;;6.50;99.90;;;;;;6155797;23;20025;-79
2023/01/02 01:10:36;;;;;;;91.15;34.22;;;6.60;99.90;;;;;;6130978;23;20330;-79
2023/01/02 01:13:05;;;;;;;98.25;36.17;;;6.60;99.90;;;;;;6156586;23;20028;-79
2023/01/02 01:15:33;;;;;;;97.43;35.22;;;6.50;99.90;;;;;;6130828;23;20132;-79
2023/01/02 01:18:00;;;;;;;106.80;36.05;;;6.50;99.90;;;;;;6128754;23;20018;-79
2023/01/02 01:20:28;;;;;;;103.15;35.17;;;6.40;99.90;;;;;;6145441;23;20488;-79
2023/01/02 01:22:56;;;;;;;109.32;37.42;;;6.50;99.90;;;;;;6125651;23;20076;-79
2023/01/02 01:25:26;;;;;;;112.57;37.22;;;6.40;99.90;;;;;;6151165;23;20024;-79
2023/01/02 01:27:53;;;;;;;110.03;36.40;;;6.30;99.90;;;;;;6126887;23;20023;-79
2023/01/02 01:30:21;;;;;;;104.82;37.28;;;6.40;99.90;;;;;;6124532;23;20476;-80
2023/01/02 01:32:51;;;;;;;108.90;38.40;;;6.30;99.90;;;;;;6151217;23;20021;-80
2023/01/02 01:35:18;;;;;;;109.43;38.67;;;6.40;99.90;;;;;;6150429;23;20023;-79
2023/01/02 01:37:49;;;;;;;117.10;39.60;;;6.50;99.90;;;;;;6129404;23;20025;-79
2023/01/02 01:40:16;;;;;;;124.78;41.10;;;6.10;99.90;;;;;;6131704;23;20026;-79
2023/01/02 01:42:46;;;;;;;122.45;40.60;;;6.10;99.90;;;;;;6132091;23;20021;-79
2023/01/02 01:45:17;;;;;;;110.50;37.75;;;6.20;99.90;;;;;;6131912;23;20040;-78
2023/01/02 01:47:51;;;;;;;109.55;36.70;;;6.10;99.90;;;;;;6155335;23;20085;-78
2023/01/02 01:50:24;;;;;;;111.20;37.45;;;6.20;99.90;;;;;;6131045;23;20422;-78
2023/01/02 01:52:57;;;;;;;115.38;36.63;;;6.20;99.90;;;;;;6131706;23;20029;-80
2023/01/02 01:55:30;;;;;;;120.45;37.70;;;6.10;99.90;;;;;;6155959;23;20021;-79
2023/01/02 01:58:15;;;;;;;112.85;36.45;;;6.10;99.90;;;;;;6132542;23;20029;-78
2023/01/02 02:00:43;;;;;;;117.63;38.05;;;6.00;99.90;;;;;;6155006;23;20586;-78
2023/01/02 02:03:14;;;;;;;125.93;38.00;;;5.40;99.90;;;;;;6130848;23;20450;-78
2023/01/02 02:05:43;;;;;;;134.40;37.75;;;6.10;99.90;;;;;;6131116;23;20459;-80
2023/01/02 02:08:16;;;;;;;129.57;38.70;;;5.90;99.90;;;;;;6132243;23;20021;-79
2023/01/02 02:10:48;;;;;;;117.40;38.00;;;6.10;99.90;;;;;;6133309;23;20025;-79
2023/01/02 02:13:16;;;;;;;126.22;39.03;;;5.90;99.90;;;;;;6156765;23;20073;-79
2023/01/02 02:16:05;;;;;;;119.50;36.65;;;6.10;99.90;;;;;;6131413;23;20041;-79
2023/01/02 02:18:48;;;;;;;146.90;40.38;;;6.10;99.90;;;;;;6131643;23;20040;-79
2023/01/02 02:21:41;;;;;;;110.55;36.42;;;6.10;99.90;;;;;;6156653;23;20685;-80
2023/01/02 02:24:27;;;;;;;112.75;35.65;;;5.90;99.90;;;;;;6157770;23;20511;-79
2023/01/02 02:27:15;;;;;;;112.90;37.15;;;6.00;99.90;;;;;;6132253;23;20017;-79
2023/01/02 02:30:10;;;;;;;106.03;36.53;;;6.10;99.90;;;;;;6156171;23;20125;-79
2023/01/02 02:32:56;;;;;;;104.38;36.05;;;5.90;99.90;;;;;;6156836;23;20017;-79
2023/01/02 02:35:53;;;;;;;87.88;32.90;;;6.00;99.90;;;;;;6156218;23;20096;-80
2023/01/02 02:38:55;;;;;;;92.22;32.78;;;6.00;99.90;;;;;;6152943;23;20038;-79
2023/01/02 02:41:33;;;;;;;98.53;33.15;;;6.00;99.90;;;;;;6150193;23;20072;-79
2023/01/02 02:44:19;;;;;;;99.07;32.80;;;5.90;99.90;;;;;;6129548;23;20101;-79
2023/01/02 02:47:04;;;;;;;93.20;34.22;;;6.00;99.90;;;;;;6153302;23;20030;-79
2023/01/02 02:50:01;;;;;;;89.93;34.00;;;6.00;99.90;;;;;;6131370;23;20022;-80
2023/01/02 02:52:35;;;;;;;98.13;33.35;;;5.80;99.90;;;;;;6154682;23;20041;-79
2023/01/02 02:55:09;;;;;;;91.07;33.50;;;5.90;99.90;;;;;;6131877;23;20029;-79
2023/01/02 02:57:39;;;;;;;89.15;32.88;;;5.90;99.90;;;;;;6156204;23;20021;-79
2023/01/02 03:00:13;;;;;;;89.93;32.55;;;5.90;99.90;;;;;;6131472;23;20028;-79
2023/01/02 03:02:40;;;;;;;83.57;32.50;;;5.80;99.90;;;;;;6132982;23;20029;-78
2023/01/02 03:05:15;;;;;;;80.43;31.63;;;5.90;99.90;;;;;;6132267;23;20027;-78
2023/01/02 03:08:00;;;;;;;83.28;31.45;;;5.90;99.90;;;;;;6150789;23;20051;-79
2023/01/02 03:10:56;;;;;;;91.28;32.00;;;5.90;99.90;;;;;;6129109;23;20031;-79
2023/01/02 03:13:42;;;;;;;82.40;31.60;;;5.80;99.90;;;;;;6125890;23;20028;-79
2023/01/02 03:16:13;;;;;;;85.45;31.17;;;6.00;99.90;;;;;;6127485;23;20029;-79
2023/01/02 03:18:51;;;;;;;80.78;30.73;;;5.60;99.90;;;;;;6151372;23;20034;-79
2023/01/02 03:21:39;;;;;;;78.63;28.88;;;5.80;99.90;;;;;;6126218;23;20033;-80
2023/01/02 03:24:10;;;;;;;68.32;27.15;;;5.70;99.90;;;;;;6149073;23;20030;-79
2023/01/02 03:26:42;;;;;;;;;;;5.90;99.90;;;;;;6130871;23;20052;-79
2023/01/02 03:29:17;;;;;;;73.38;28.15;;;5.70;99.90;;;;;;6152210;23;19924;-79
2023/01/02 03:31:49;;;;;;;82.25;30.23;;;5.80;99.90;;;;;;6129508;23;20025;-79
2023/01/02 03:34:20;;;;;;;;;;;5.80;99.90;;;;;;6129241;23;20025;-80
2023/01/02 03:36:56;;;;;;;72.78;27.40;;;5.80;99.90;;;;;;6155566;23;19966;-78
2023/01/02 03:39:28;;;;;;;82.40;29.48;;;5.90;99.90;;;;;;6153819;23;20068;-79
2023/01/02 03:42:03;;;;;;;70.95;29.58;;;6.00;99.90;;;;;;6130036;23;20032;-79
2023/01/02 03:44:39;;;;;;;74.40;30.15;;;5.90;99.90;;;;;;6131174;23;20017;-79
2023/01/02 03:47:25;;;;;;;73.90;29.65;;;5.90;99.90;;;;;;6153592;23;20096;-79
2023/01/02 03:49:55;;;;;;;73.72;29.05;;;5.70;99.90;;;;;;6130364;23;20516;-79
2023/01/02 03:52:23;;;;;;;73.32;29.98;;;5.90;99.90;;;;;;6153611;23;20020;-79
2023/01/02 03:54:54;;;;;;;75.07;30.83;;;5.80;99.90;;;;;;6153496;23;20041;-79
2023/01/02 03:57:35;;;;;;;74.95;29.65;;;5.80;99.90;;;;;;6130842;23;20357;-78
2023/01/02 04:00:13;;;;;;;75.38;29.02;;;5.80;99.90;;;;;;6129573;23;20056;-78
2023/01/02 04:03:09;;;;;;;68.45;28.75;;;5.80;99.90;;;;;;6129088;23;20066;-78
2023/01/02 04:06:02;;;;;;;70.47;28.70;;;5.90;99.90;;;;;;6129390;23;20814;-79
2023/01/02 04:08:56;;;;;;;69.63;26.63;;;7.30;99.90;;;;;;6118608;23;20021;-79
2023/01/02 04:11:29;;;;;;;63.38;26.98;;;5.90;99.90;;;;;;6152335;23;20072;-78
2023/01/02 04:14:02;;;;;;;;;;;5.90;99.90;;;;;;6129539;23;20836;-79
2023/01/02 04:16:37;;;;;;;60.08;25.17;;;5.80;99.90;;;;;;6151656;23;19927;-79
2023/01/02 04:19:11;;;;;;;67.97;26.35;;;5.90;99.90;;;;;;6151348;23;20082;-79
2023/01/02 04:21:41;;;;;;;60.53;25.15;;;5.90;99.90;;;;;;6129835;23;20025;-79
2023/01/02 04:24:17;;;;;;;59.65;23.30;;;5.90;99.90;;;;;;6153962;23;20042;-79
2023/01/02 04:26:50;;;;;;;60.60;22.67;;;5.80;99.90;;;;;;6155410;23;20077;-79
2023/01/02 04:29:17;;;;;;;;;;;5.80;99.90;;;;;;6154825;23;20041;-79
2023/01/02 04:31:54;;;;;;;61.58;22.83;;;6.00;99.90;;;;;;6129498;23;19920;-79
2023/01/02 04:34:25;;;;;;;55.05;22.77;;;5.90;99.90;;;;;;6128121;23;20028;-79
2023/01/02 04:36:55;;;;;;;56.78;22.23;;;5.90;99.90;;;;;;6149376;23;20109;-79
2023/01/02 04:39:29;;;;;;;55.20;22.83;;;5.90;99.90;;;;;;6124320;23;20055;-79
2023/01/02 04:41:56;;;;;;;49.60;21.67;;;6.00;99.90;;;;;;6123871;23;20516;-79
2023/01/02 04:44:24;;;;;;;59.85;22.98;;;5.90;99.90;;;;;;6151827;23;20052;-78
2023/01/02 04:46:51;;;;;;;59.15;21.05;;;5.90;99.90;;;;;;6124213;23;20021;-78
2023/01/02 04:49:19;;;;;;;51.53;22.23;;;5.90;99.90;;;;;;6126156;23;20013;-78
2023/01/02 04:51:46;;;;;;;57.83;24.05;;;5.80;99.90;;;;;;6126754;23;20348;-78
2023/01/02 04:54:14;;;;;;;50.40;21.27;;;5.30;99.90;;;;;;6126401;23;20048;-78
2023/01/02 04:56:43;;;;;;;55.15;22.45;;;5.90;99.90;;;;;;6124292;23;20025;-78
2023/01/02 04:59:13;;;;;;;56.25;22.05;;;5.80;99.90;;;;;;6151005;23;20036;-79
2023/01/02 05:01:41;;;;;;;64.85;22.40;;;6.00;99.90;;;;;;6148724;23;20106;-79
2023/01/02 05:04:12;;;;;;;51.35;21.85;;;6.00;99.90;;;;;;6150624;23;20066;-78
2023/01/02 05:06:39;;;;;;;62.92;21.02;;;5.90;99.90;;;;;;6126144;23;20164;-79
2023/01/02 05:09:10;;;;;;;49.97;20.58;;;5.90;99.90;;;;;;6148731;23;20423;-79
2023/01/02 05:11:37;;;;;;;60.10;21.13;;;6.10;99.90;;;;;;6148974;23;20438;-79
2023/01/02 05:14:04;;;;;;;69.85;23.73;;;5.90;99.90;;;;;;6172426;23;20026;-79
2023/01/02 05:16:34;;;;;;;50.78;19.50;;;5.90;99.90;;;;;;6123875;23;20500;-79
2023/01/02 05:19:01;;;;;;;48.42;19.08;;;5.90;99.90;;;;;;6124421;23;20029;-79
2023/01/02 05:24:14;;;;;;;53.63;21.15;;;5.90;99.90;;;;;;6154971;23;20028;-79
2023/01/02 05:26:42;;;;;;;47.92;19.80;;;5.90;99.90;;;;;;6153474;23;20088;-79
2023/01/02 05:29:09;;;;;;;46.38;18.90;;;5.90;99.90;;;;;;6127271;23;20104;-79
2023/01/02 05:31:37;;;;;;;46.15;20.20;;;5.90;99.90;;;;;;6128212;23;20473;-79
2023/01/02 05:34:04;;;;;;;52.70;18.45;;;5.80;99.90;;;;;;6152899;23;20025;-79
2023/01/02 05:36:31;;;;;;;51.97;20.17;;;6.00;99.90;;;;;;6101829;23;20021;-79
2023/01/02 05:39:00;;;;;;;42.83;19.23;;;5.80;99.90;;;;;;6123319;23;20037;-79
2023/01/02 05:41:27;;;;;;;55.20;20.70;;;5.90;99.90;;;;;;6123595;23;20041;-79
2023/01/02 05:43:55;;;;;;;46.70;19.20;;;5.90;99.90;;;;;;6148259;23;20025;-79
2023/01/02 05:46:24;;;;;;;47.53;18.27;;;5.90;99.90;;;;;;6125556;23;20026;-79
2023/01/02 05:48:51;;;;;;;46.05;18.08;;;5.80;99.90;;;;;;6124207;23;20017;-79
2023/01/02 05:51:28;;;;;;;42.63;17.58;;;5.90;99.90;;;;;;6126267;23;20072;-79
2023/01/02 05:53:58;;;;;;;48.63;18.38;;;5.90;99.90;;;;;;6150443;23;20480;-79
2023/01/02 05:56:27;;;;;;;48.10;17.92;;;5.90;99.90;;;;;;6124103;23;20018;-80
2023/01/02 05:58:55;;;;;;;47.03;18.33;;;6.00;99.90;;;;;;6146249;23;20033;-79
2023/01/02 06:01:28;;;;;;;43.58;18.00;;;5.90;99.90;;;;;;6153410;23;20025;-79
2023/01/02 06:03:58;;;;;;;40.92;18.38;;;5.90;99.90;;;;;;6130348;23;20021;-79
2023/01/02 06:06:31;;;;;;;39.78;17.42;;;5.90;99.90;;;;;;6154275;23;20029;-79
2023/01/02 06:09:02;;;;;;;46.33;19.25;;;6.10;99.90;;;;;;6130518;23;20101;-79
2023/01/02 06:11:30;;;;;;;69.65;26.25;;;5.80;99.90;;;;;;6154797;23;20022;-79
2023/01/02 06:14:01;;;;;;;43.95;19.65;;;5.80;99.90;;;;;;6154066;23;20585;-79
2023/01/02 06:16:34;;;;;;;60.90;21.10;;;5.80;99.90;;;;;;6154567;23;20065;-79
2023/01/02 06:19:06;;;;;;;50.05;20.60;;;5.90;99.90;;;;;;6128784;23;20026;-79
2023/01/02 06:21:34;;;;;;;46.17;20.95;;;5.80;99.90;;;;;;6153258;23;20072;-79
2023/01/02 06:24:02;;;;;;;51.13;19.13;;;5.80;99.90;;;;;;6153934;23;20025;-79
2023/01/02 06:26:29;;;;;;;39.53;16.50;;;5.80;99.90;;;;;;6153860;23;20022;-79
2023/01/02 06:29:02;;;;;;;55.13;20.95;;;5.80;99.90;;;;;;6129480;23;20028;-79
2023/01/02 06:31:32;;;;;;;54.20;21.27;;;5.70;99.90;;;;;;6128561;23;20021;-79
2023/01/02 06:34:03;;;;;;;43.50;20.02;;;5.80;99.90;;;;;;6153433;23;20021;-80
2023/01/02 06:36:33;;;;;;;47.83;20.33;;;5.80;99.90;;;;;;6150511;23;20029;-79
2023/01/02 06:39:01;;;;;;;62.72;20.58;;;5.80;99.90;;;;;;6128488;23;20112;-78
2023/01/02 06:41:28;;;;;;;42.38;18.45;;;5.80;99.90;;;;;;6153271;23;20021;-79
2023/01/02 06:43:56;;;;;;;54.53;19.42;;;6.00;99.90;;;;;;6127624;23;20033;-79
2023/01/02 06:46:23;;;;;;;45.05;19.48;;;5.90;99.90;;;;;;6124602;23;20349;-79
2023/01/02 06:48:51;;;;;;;46.13;19.42;;;5.90;99.90;;;;;;6152441;23;20021;-78
2023/01/02 06:51:21;;;;;;;44.10;19.33;;;5.80;99.90;;;;;;6128657;23;20125;-79
2023/01/02 06:53:48;;;;;;;39.85;18.50;;;6.00;99.90;;;;;;6129304;23;20017;-79
2023/01/02 06:56:18;;;;;;;45.20;20.23;;;5.90;99.90;;;;;;6127703;23;20028;-79
2023/01/02 06:58:46;;;;;;;38.90;16.98;;;5.90;99.90;;;;;;6151122;23;20060;-80
2023/01/02 07:01:18;;;;;;;49.10;20.98;;;5.90;99.90;;;;;;6126618;23;20030;-80
2023/01/02 07:03:46;;;;;;;154.40;52.27;;;5.90;99.90;;;;;;6125972;23;20063;-79
2023/01/02 07:06:16;;;;;;;154.13;53.83;;;5.90;99.90;;;;;;6151892;23;20025;-79
2023/01/02 07:08:49;;;;;;;118.93;46.50;;;5.90;99.90;;;;;;6153329;23;20069;-79
2023/01/02 07:11:19;;;;;;;41.42;19.05;;;5.90;99.90;;;;;;6154840;23;20025;-79
2023/01/02 07:13:50;;;;;;;53.65;17.80;;;5.80;99.90;;;;;;6153847;23;20017;-79
2023/01/02 07:16:19;;;;;;;39.95;17.08;;;5.80;99.90;;;;;;6151488;23;20076;-79
2023/01/02 07:18:47;;;;;;;42.97;18.52;;;5.70;99.90;;;;;;6126984;23;20118;-80
2023/01/02 07:21:17;;;;;;;41.25;19.45;;;5.80;99.90;;;;;;6154100;23;20079;-78
2023/01/02 07:23:44;;;;;;;43.13;20.80;;;6.00;99.90;;;;;;6128008;23;20017;-78
2023/01/02 07:26:12;;;;;;;46.80;19.58;;;6.00;99.90;;;;;;6129890;23;20047;-77
2023/01/02 07:28:40;;;;;;;41.03;17.63;;;6.00;99.90;;;;;;6131034;23;20013;-77
2023/01/02 07:31:12;;;;;;;46.30;18.02;;;5.80;99.90;;;;;;6130397;23;20026;-78
2023/01/02 07:33:40;;;;;;;40.47;16.08;;;6.00;99.90;;;;;;6154233;23;20025;-78
2023/01/02 07:36:12;;;;;;;37.80;17.30;;;6.00;99.90;;;;;;6126933;23;20497;-79
2023/01/02 07:38:39;;;;;;;42.05;17.70;;;5.20;99.90;;;;;;6148455;23;20029;-78
2023/01/02 07:41:18;;;;;;;43.20;18.40;;;6.00;99.90;;;;;;6124500;23;20112;-78
2023/01/02 07:43:49;;;;;;;40.63;17.90;;;5.70;99.90;;;;;;6123608;23;20029;-79
2023/01/02 07:46:18;;;;;;;35.40;15.30;;;6.00;99.90;;;;;;6149562;23;20339;-78
2023/01/02 07:48:47;;;;;;;36.28;16.35;;;6.00;99.90;;;;;;6123945;23;20101;-78
2023/01/02 07:51:14;;;;;;;38.60;17.60;;;6.10;99.90;;;;;;6151386;23;20179;-79
2023/01/02 07:53:48;;;;;;;40.95;16.98;;;6.10;99.90;;;;;;6150897;23;20022;-78
2023/01/02 07:56:16;;;;;;;42.47;19.58;;;6.30;99.90;;;;;;6147244;23;20021;-78
2023/01/02 07:58:43;;;;;;;43.33;18.60;;;5.00;99.90;;;;;;6123792;23;20079;-78
2023/01/02 08:01:11;;;;;;;38.17;16.75;;;6.30;99.90;;;;;;6148490;23;20215;-78
2023/01/02 08:03:40;;;;;;;42.97;16.90;;;6.10;99.90;;;;;;6152725;23;20014;-78
2023/01/02 08:06:15;;;;;;;41.45;18.05;;;6.00;99.90;;;;;;6152351;23;20018;-78
2023/01/02 08:08:43;;;;;;;42.80;16.65;;;6.10;99.90;;;;;;6154910;23;20077;-78
2023/01/02 08:11:16;;;;;;;42.72;18.98;;;6.20;99.90;;;;;;6155900;23;20049;-78
2023/01/02 08:13:43;;;;;;;34.83;17.10;;;6.20;99.90;;;;;;6133643;23;20021;-78
2023/01/02 08:16:16;;;;;;;43.08;18.00;;;6.00;99.90;;;;;;6131166;23;20402;-78
2023/01/02 08:18:45;;;;;;;32.20;16.55;;;6.20;99.90;;;;;;6129764;23;20826;-78
2023/01/02 08:21:15;;;;;;;34.20;16.17;;;6.20;99.90;;;;;;6131753;23;20033;-78
2023/01/02 08:23:42;;;;;;;39.50;16.65;;;6.30;99.90;;;;;;6131919;23;20458;-78
2023/01/02 08:26:13;;;;;;;35.10;15.95;;;6.30;99.90;;;;;;6157721;23;20025;-79
2023/01/02 08:28:43;;;;;;;36.60;15.98;;;5.80;99.90;;;;;;6134511;23;20108;-79
2023/01/02 08:31:13;;;;;;;36.70;16.67;;;6.20;99.90;;;;;;6156829;23;20095;-79
2023/01/02 08:33:43;;;;;;;35.08;16.00;;;5.80;99.90;;;;;;6156593;23;20033;-78
2023/01/02 08:36:13;;;;;;;37.42;17.42;;;6.20;99.90;;;;;;6128796;23;20350;-77
2023/01/02 08:38:41;;;;;;;36.10;16.63;;;6.40;99.90;;;;;;6151233;23;20080;-77
2023/01/02 08:41:08;;;;;;;37.80;16.83;;;6.40;99.90;;;;;;6127357;23;20022;-77
2023/01/02 08:43:36;;;;;;;34.53;15.95;;;6.40;99.90;;;;;;6151089;23;20049;-78
2023/01/02 08:46:05;;;;;;;38.25;16.05;;;6.50;99.90;;;;;;6147701;23;20079;-78
2023/01/02 08:48:33;;;;;;;40.95;18.10;;;6.60;99.90;;;;;;6126947;23;20018;-78
2023/01/02 08:51:02;;;;;;;44.90;18.48;;;6.60;99.90;;;;;;6150397;23;20080;-78
2023/01/02 08:53:30;;;;;;;40.47;17.92;;;6.60;99.90;;;;;;6128210;23;20064;-79
2023/01/02 08:56:19;;;;;;;39.47;18.08;;;6.60;99.90;;;;;;6127331;23;20047;-79
2023/01/02 08:58:55;;;;;;;39.15;17.02;;;6.60;99.90;;;;;;6152579;23;20073;-79
2023/01/02 09:01:23;;;;;;;38.10;16.85;;;6.80;99.90;;;;;;6152792;23;20026;-79
2023/01/02 09:03:51;;;;;;;44.20;17.45;;;6.70;99.90;;;;;;6153306;23;20025;-79
2023/01/02 09:06:20;;;;;;;42.17;16.27;;;6.70;99.90;;;;;;6128527;23;20101;-79
2023/01/02 09:08:54;;;;;;;44.30;19.05;;;6.80;99.90;;;;;;6152998;23;20037;-78
2023/01/02 09:11:27;;;;;;;39.60;17.73;;;6.80;99.90;;;;;;6131575;23;20076;-78
2023/01/02 09:13:55;;;;;;;39.80;17.77;;;6.80;99.90;;;;;;6157883;23;20045;-78
2023/01/02 09:16:23;;;;;;;41.55;18.08;;;6.90;99.90;;;;;;6133207;23;20446;-78
2023/01/02 09:18:51;;;;;;;46.38;19.17;;;6.90;99.90;;;;;;6158096;23;20022;-78
2023/01/02 09:21:19;;;;;;;42.92;18.02;;;6.90;99.90;;;;;;6154903;23;20777;-77
2023/01/02 09:23:46;;;;;;;35.63;15.40;;;6.90;99.90;;;;;;6132295;23;20112;-77
2023/01/02 09:26:14;;;;;;;38.53;16.75;;;7.00;99.90;;;;;;6158267;23;20488;-78
2023/01/02 09:28:41;;;;;;;38.88;16.90;;;7.60;99.90;;;;;;6157705;23;20100;-77
2023/01/02 09:31:14;;;;;;;37.42;16.48;;;7.10;99.90;;;;;;6132880;23;20412;-77
2023/01/02 09:33:42;;;;;;;;;;;6.90;99.90;;;;;;6157109;23;20464;-78
2023/01/02 09:36:11;;;;;;;34.67;14.63;;;7.20;99.90;;;;;;6130401;23;19916;-78
2023/01/02 09:38:39;;;;;;;36.80;16.02;;;7.10;99.90;;;;;;6178419;23;20026;-78
2023/01/02 09:41:34;;;;;;;40.72;15.95;;;7.20;99.90;;;;;;6156178;23;20026;-78
2023/01/02 09:44:21;;;;;;;39.47;16.55;;;6.30;99.90;;;;;;6124306;23;20080;-78
2023/01/02 09:46:53;;;;;;;43.47;16.27;;;7.30;99.90;;;;;;6154500;23;20084;-78
2023/01/02 09:49:41;;;;;;;41.90;18.58;;;7.40;99.90;;;;;;6152476;23;20017;-78
2023/01/02 09:52:21;;;;;;;43.75;19.77;;;7.30;99.90;;;;;;6152221;23;20312;-78
2023/01/02 09:54:50;;;;;;;46.83;18.77;;;7.40;99.90;;;;;;6127848;23;20017;-78
2023/01/02 09:57:26;;;;;;;39.40;15.55;;;7.60;99.90;;;;;;6155216;23;20100;-78
2023/01/02 10:00:02;;;;;;;44.83;17.75;;;7.70;99.90;;;;;;6156980;23;20025;-78
2023/01/02 10:03:02;;;;;;;42.10;17.85;;;7.70;99.90;;;;;;6157654;23;20061;-78
2023/01/02 10:05:39;;;;;;;;;;;7.80;99.90;;;;;;6154903;23;20468;-77
2023/01/02 10:08:13;;;;;;;37.80;16.55;;;7.70;99.90;;;;;;6154336;23;19920;-77
2023/01/02 10:11:04;;;;;;;45.38;18.70;;;7.80;99.90;;;;;;6156486;23;20017;-77
2023/01/02 10:13:46;;;;;;;42.05;18.77;;;7.70;99.90;;;;;;6156077;23;20468;-77
2023/01/02 10:16:40;;;;;;;44.90;19.35;;;7.80;99.90;;;;;;6133370;23;20045;-77
2023/01/02 10:19:36;;;;;;;44.28;18.98;;;8.00;99.90;;;;;;6131565;23;20051;-78
2023/01/02 10:22:06;;;;;;;48.45;21.27;;;8.10;99.90;;;;;;6150165;23;20017;-78
2023/01/02 10:24:34;;;;;;;47.63;20.42;;;8.20;99.90;;;;;;6156926;23;20026;-78
2023/01/02 10:27:04;;;;;;;38.33;19.08;;;8.30;99.90;;;;;;6155239;23;20017;-78
2023/01/02 10:29:43;;;;;;;43.28;21.50;;;8.40;99.90;;;;;;6155932;23;20068;-77
2023/01/02 10:32:21;;;;;;;47.67;21.88;;;8.50;99.90;;;;;;6154229;23;20485;-78
2023/01/02 10:35:08;;;;;;;52.65;22.63;;;8.50;99.90;;;;;;6153121;23;20484;-77
2023/01/02 10:37:35;;;;;;;41.67;19.33;;;8.60;99.90;;;;;;6130837;23;20414;-77
2023/01/02 10:40:03;;;;;;;44.05;20.23;;;8.70;99.90;;;;;;6155324;23;20018;-77
2023/01/02 10:42:32;;;;;;;45.08;20.45;;;8.80;99.90;;;;;;6129639;23;20021;-77
2023/01/02 10:45:00;;;;;;;47.80;21.85;;;8.90;99.90;;;;;;6127944;23;20048;-77
2023/01/02 10:47:34;;;;;;;43.42;20.67;;;9.00;99.90;;;;;;6154204;23;20028;-77
2023/01/02 10:50:05;;;;;;;41.20;19.20;;;9.10;99.90;;;;;;6155329;23;20507;-77
2023/01/02 10:53:03;;;;;;;43.88;20.67;;;9.10;99.90;;;;;;6156097;23;20097;-77
2023/01/02 10:55:38;;;;;;;41.60;19.55;;;9.20;99.90;;;;;;6129660;23;20026;-77
2023/01/02 10:58:21;;;;;;;39.53;19.50;;;9.30;99.90;;;;;;6154906;23;20018;-77
2023/01/02 11:01:17;;;;;;;39.70;22.23;;;9.40;99.90;;;;;;6154147;23;20457;-77
2023/01/02 11:04:09;;;;;;;41.20;22.23;;;9.40;99.90;;;;;;6128523;23;20021;-77
2023/01/02 11:07:22;;;;;;;36.55;18.75;;;9.50;99.90;;;;;;6127953;23;20018;-77
2023/01/02 11:09:56;;;;;;;38.25;18.15;;;9.60;99.90;;;;;;6113167;23;20026;-77
2023/01/02 11:12:23;;;;;;;38.17;19.13;;;9.70;99.90;;;;;;6152822;23;20048;-77
2023/01/02 11:15:10;;;;;;;42.30;21.33;;;9.70;99.90;;;;;;6153205;23;20028;-77
2023/01/02 11:17:42;;;;;;;36.28;20.00;;;9.70;99.90;;;;;;6152792;23;20025;-77
2023/01/02 11:20:33;;;;;;;40.78;20.08;;;9.70;99.90;;;;;;6152287;23;20052;-78
2023/01/02 11:23:02;;;;;;;31.00;16.45;;;9.80;99.90;;;;;;6127885;23;20101;-77
2023/01/02 11:25:39;;;;;;;33.10;16.30;;;9.90;99.90;;;;;;6129596;23;20045;-78
2023/01/02 11:28:15;;;;;;;29.27;14.23;;;10.10;99.90;;;;;;6151479;23;20017;-77
2023/01/02 11:30:49;;;;;;;32.38;15.05;;;10.20;99.90;;;;;;6149746;23;20077;-78
2023/01/02 11:33:20;;;;;;;33.10;14.98;;;10.20;99.90;;;;;;6123556;23;20025;-78
2023/01/02 11:35:51;;;;;;;32.00;14.68;;;10.30;99.90;;;;;;6144046;23;20108;-78
2023/01/02 11:38:20;;;;;;;31.85;15.48;;;10.30;99.90;;;;;;6119823;23;20025;-78
2023/01/02 11:41:00;;;;;;;27.05;13.60;;;10.40;99.90;;;;;;6144273;23;20052;-78
2023/01/02 11:43:47;;;;;;;34.25;15.05;;;10.50;99.90;;;;;;6144801;23;20033;-78
2023/01/02 11:46:36;;;;;;;29.67;13.57;;;10.50;99.90;;;;;;6147594;23;20367;-78
2023/01/02 11:49:10;;;;;;;26.70;13.00;;;10.60;99.90;;;;;;6125164;23;20406;-78
2023/01/02 11:51:39;;;;;;;25.27;13.55;;;10.70;99.90;;;;;;6150170;23;20106;-77
2023/01/02 11:54:22;;;;;;;25.63;13.43;;;10.70;99.90;;;;;;6123036;23;20026;-78
2023/01/02 11:56:51;;;;;;;29.52;14.13;;;10.80;99.90;;;;;;6149980;23;20029;-78
2023/01/02 11:59:27;;;;;;;25.88;12.52;;;10.70;99.90;;;;;;6124298;23;20436;-78
2023/01/02 12:01:59;;;;;;;26.50;12.63;;;10.80;99.90;;;;;;6149639;23;20425;-77
2023/01/02 12:04:27;;;;;;;23.35;11.30;;;10.80;99.90;;;;;;6123466;23;20358;-78
2023/01/02 12:07:09;;;;;;;23.38;12.25;;;10.80;99.90;;;;;;6148968;23;20160;-79
2023/01/02 12:09:39;;;;;;;21.23;11.05;;;10.80;99.90;;;;;;6148073;23;20421;-79
2023/01/02 12:12:34;;;;;;;21.80;11.60;;;10.90;99.90;;;;;;6148156;23;20462;-79
2023/01/02 12:15:06;;;;;;;20.85;10.85;;;11.00;99.90;;;;;;6147728;23;20021;-79
2023/01/02 12:17:45;;;;;;;26.80;12.93;;;11.10;99.90;;;;;;6148529;23;20076;-79
2023/01/02 12:20:16;;;;;;;22.85;10.60;;;11.10;99.90;;;;;;6124061;23;20102;-79
2023/01/02 12:23:05;;;;;;;21.42;9.75;;;11.30;99.90;;;;;;6150212;23;20076;-80
2023/01/02 12:25:56;;;;;;;38.40;18.42;;;11.20;99.90;;;;;;6143052;23;20414;-78
2023/01/02 12:29:14;;;;;;;36.25;18.60;;;11.20;99.90;;;;;;6146846;23;20018;-78
2023/01/02 12:32:28;;;;;;;39.45;20.10;;;11.10;99.90;;;;;;6059273;23;20026;-78
2023/01/02 12:35:40;;;;;;;53.50;25.27;;;11.00;99.90;;;;;;6144907;23;20014;-78
2023/01/02 12:38:09;;;;;;;49.20;23.23;;;10.90;99.90;;;;;;6124602;23;20018;-79
2023/01/02 12:41:04;;;;;;;41.90;19.67;;;10.80;99.90;;;;;;6146086;23;20025;-78
2023/01/02 12:44:06;;;;;;;42.50;21.58;;;10.70;99.90;;;;;;6125863;23;20064;-78
2023/01/02 12:47:12;;;;;;;41.70;20.90;;;10.60;99.90;;;;;;6060197;23;20070;-78
2023/01/02 12:50:06;;;;;;;44.92;24.33;;;10.70;99.90;;;;;;6151006;23;20018;-78
2023/01/02 12:52:39;;;;;;;46.42;22.50;;;10.60;99.90;;;;;;6153482;23;20068;-78
2023/01/02 12:55:44;;;;;;;35.75;18.90;;;10.60;99.90;;;;;;6152749;23;20064;-78
2023/01/02 12:58:36;;;;;;;40.08;19.60;;;10.50;99.90;;;;;;6149150;23;20020;-78
2023/01/02 13:01:35;;;;;;;44.85;22.05;;;10.50;99.90;;;;;;6126869;23;20029;-77
2023/01/02 13:04:19;;;;;;;41.88;20.40;;;10.40;99.90;;;;;;6128310;23;20034;-79
2023/01/02 13:07:02;;;;;;;42.83;20.45;;;10.40;99.90;;;;;;6154205;23;20501;-81
2023/01/02 13:09:39;;;;;;;48.25;22.48;;;10.30;99.90;;;;;;6151084;23;20021;-78
2023/01/02 13:12:10;;;;;;;44.78;22.13;;;10.30;99.90;;;;;;6150920;23;20551;-78
2023/01/02 13:14:40;;;;;;;43.83;22.90;;;10.30;99.90;;;;;;6152465;23;20021;-79